Date,TemperatureHighF,TemperatureAvgF,TemperatureLowF,DewpointHighF,DewpointAvgF,DewpointLowF,HumidityHigh,HumidityAvg,HumidityLow,PressureMaxIn,PressureMinIn,WindSpeedMaxMPH,WindSpeedAvgMPH,GustSpeedMaxMPH,PrecipitationSumIn
2014-2-1,31.0,28.9,27.0,30.0,24.7,-99.9,99,88,74,0.00,40.00,13,9,0,0.00
2014-2-2,29.0,25.2,21.0,22.0,16.0,9.0,90,69,45,0.00,40.00,14,10,0,0.00
2014-2-3,37.0,25.7,8.0,18.0,13.2,4.0,87,62,42,0.00,40.00,3,2,0,0.00
2014-2-4,33.0,30.0,28.0,29.0,24.2,10.0,95,81,38,0.00,40.00,14,4,0,0.02
2014-2-5,27.0,15.7,11.0,22.0,6.2,-2.0,81,66,57,0.00,40.00,19,15,0,0.01
2014-2-6,16.0,12.1,8.0,2.0,0.2,-3.0,71,58,52,0.00,40.00,12,8,0,0.00
2014-2-7,25.0,19.4,13.0,19.0,7.1,-1.0,79,58,51,0.00,40.00,5,3,0,0.00
2014-2-8,31.0,28.4,25.0,29.0,25.5,20.0,94,89,83,0.00,40.00,4,2,0,0.00
2014-2-9,31.0,29.5,26.0,30.0,25.4,19.0,98,85,75,0.00,40.00,12,6,0,0.00
2014-2-10,26.0,21.6,18.0,18.0,11.8,6.0,78,65,54,0.00,40.00,12,10,0,0.00
2014-2-11,33.0,20.7,16.0,14.0,9.2,4.0,81,63,29,0.00,40.00,9,5,0,0.02
2014-2-12,45.0,28.6,14.0,26.0,16.5,9.0,83,63,34,0.00,40.00,13,4,0,0.01
2014-2-13,53.0,31.8,23.0,27.0,23.5,20.0,92,74,32,0.00,40.00,5,2,0,0.00
2014-2-14,54.0,45.6,34.0,32.0,25.8,21.0,76,49,27,0.00,40.00,21,11,0,0.00
2014-2-15,56.0,35.9,25.0,28.0,19.7,-99.9,82,59,25,0.00,40.00,6,2,0,0.00
2014-2-16,60.0,38.2,28.0,45.0,28.9,23.0,81,70,42,0.00,40.00,5,2,0,0.00
2014-2-17,60.0,53.8,38.0,53.0,33.1,14.0,80,50,16,0.00,40.00,23,9,0,0.00
2014-2-18,67.0,38.6,25.0,34.0,26.2,21.0,82,64,19,0.00,40.00,6,1,0,0.00
2014-2-19,65.0,56.0,42.0,61.0,42.6,21.0,100,65,28,0.00,40.00,8,5,0,0.04
2014-2-20,65.0,54.2,43.0,58.0,32.9,10.0,90,49,19,0.00,40.00,26,13,0,0.04
2014-2-21,50.0,34.1,22.0,27.0,15.8,8.0,70,49,26,0.00,40.00,5,2,0,0.00
2014-2-22,65.0,47.1,38.0,32.0,18.1,-99.9,61,34,17,0.00,40.00,8,3,0,0.00
2014-2-23,50.0,41.8,34.0,27.0,19.8,13.0,65,43,24,0.00,40.00,15,11,0,0.00
2014-2-24,47.0,35.3,27.0,20.0,16.1,13.0,62,46,32,0.00,40.00,9,4,0,0.00
2014-2-25,44.0,37.2,29.0,25.0,16.8,12.0,59,44,33,0.00,40.00,15,10,0,0.00
2014-2-26,35.0,24.9,18.0,14.0,4.5,-5.0,66,44,17,0.00,40.00,17,9,0,0.00
2014-2-27,43.0,26.8,18.0,13.0,10.2,5.0,72,51,26,0.00,40.00,4,2,0,0.00
2014-2-28,53.0,42.7,37.0,33.0,26.4,12.0,80,54,32,0.00,40.00,7,3,0,0.19